createdAt,value
2022-09-11T00:01:36.697Z,64.67
2022-09-11T00:04:04.520Z,65.86
2022-09-11T00:06:32.167Z,65.24
2022-09-11T00:09:02.334Z,63.86
2022-09-11T00:11:33.259Z,63.38
2022-09-11T00:14:01.922Z,64.22
2022-09-11T00:16:36.038Z,64.98
2022-09-11T00:19:10.167Z,65.62
2022-09-11T00:21:37.720Z,64.99
2022-09-11T00:24:05.851Z,64.92
2022-09-11T00:26:33.398Z,63.94
2022-09-11T00:29:01.926Z,63.90
2022-09-11T00:31:33.684Z,64.45
2022-09-11T00:34:01.699Z,65.13
2022-09-11T00:36:31.684Z,64.79
2022-09-11T00:39:00.220Z,65.51
2022-09-11T00:41:36.569Z,66.00
2022-09-11T00:44:28.536Z,67.82
2022-09-11T00:47:03.208Z,67.63
2022-09-11T00:49:46.677Z,68.08
2022-09-11T00:52:20.303Z,68.57
2022-09-11T00:54:57.699Z,69.44
2022-09-11T00:57:29.202Z,69.87
2022-09-11T01:00:00.410Z,69.55
2022-09-11T01:02:31.665Z,69.73
2022-09-11T01:05:02.211Z,70.11
2022-09-11T01:07:30.818Z,69.98
2022-09-11T01:09:59.926Z,70.46
2022-09-11T01:12:46.247Z,71.00
2022-09-11T01:15:55.306Z,70.67
2022-09-11T01:18:46.316Z,70.07
2022-09-11T01:21:40.912Z,70.88
2022-09-11T01:24:26.242Z,72.12
2022-09-11T01:27:21.146Z,72.19
2022-09-11T01:29:58.090Z,72.72
2022-09-11T01:32:41.401Z,72.28
2022-09-11T01:35:44.585Z,70.54
2022-09-11T01:38:21.790Z,70.53
2022-09-11T01:40:59.118Z,72.26
2022-09-11T01:43:30.686Z,70.71
2022-09-11T01:46:03.127Z,70.90
2022-09-11T01:48:39.248Z,70.13
2022-09-11T01:51:10.067Z,68.25
2022-09-11T01:53:41.035Z,69.35
2022-09-11T01:56:19.601Z,70.83
2022-09-11T01:58:55.475Z,71.61
2022-09-11T02:01:29.079Z,72.76
2022-09-11T02:04:21.827Z,73.60
2022-09-11T02:06:56.231Z,75.33
2022-09-11T02:09:35.174Z,74.24
2022-09-11T02:12:07.422Z,74.88
2022-09-11T02:14:42.132Z,74.59
2022-09-11T02:17:20.079Z,76.03
2022-09-11T02:19:50.608Z,76.42
2022-09-11T02:22:18.252Z,76.13
2022-09-11T02:24:46.202Z,75.62
2022-09-11T02:27:24.172Z,75.40
2022-09-11T02:29:53.943Z,77.72
2022-09-11T02:32:26.927Z,79.34
2022-09-11T02:34:55.959Z,76.05
2022-09-11T02:37:49.338Z,73.77
2022-09-11T02:40:23.380Z,75.49
2022-09-11T02:43:13.360Z,78.71
2022-09-11T02:46:07.461Z,83.00
2022-09-11T02:48:40.815Z,86.53
2022-09-11T02:51:15.758Z,85.71
2022-09-11T02:54:22.172Z,87.20
2022-09-11T02:56:56.874Z,85.82
2022-09-11T02:59:40.572Z,84.77
2022-09-11T03:02:18.347Z,88.76
2022-09-11T03:04:48.526Z,89.11
2022-09-11T03:07:16.861Z,88.98
2022-09-11T03:09:45.122Z,87.00
2022-09-11T03:12:20.250Z,86.72
2022-09-11T03:14:52.054Z,84.15
2022-09-11T03:17:21.939Z,87.63
2022-09-11T03:19:49.949Z,85.35
2022-09-11T03:22:18.970Z,84.24
2022-09-11T03:24:48.150Z,84.80
2022-09-11T03:27:17.259Z,82.57
2022-09-11T03:29:47.916Z,83.23
2022-09-11T03:32:16.283Z,82.53
2022-09-11T03:34:44.144Z,84.25
2022-09-11T03:37:13.070Z,80.60
2022-09-11T03:39:41.696Z,80.46
2022-09-11T03:42:12.341Z,82.04
2022-09-11T03:44:43.012Z,82.97
2022-09-11T03:47:13.240Z,81.52
2022-09-11T03:49:40.949Z,79.90
2022-09-11T03:52:10.764Z,79.21
2022-09-11T03:54:39.848Z,79.55
2022-09-11T03:57:07.628Z,83.35
2022-09-11T03:59:40.104Z,77.52
2022-09-11T04:02:07.763Z,82.73
2022-09-11T04:04:37.133Z,82.24
2022-09-11T04:07:05.296Z,81.43
2022-09-11T04:09:35.419Z,78.02
2022-09-11T04:12:05.497Z,82.62
2022-09-11T04:14:33.315Z,83.33
2022-09-11T04:17:01.024Z,78.28
2022-09-11T04:19:46.584Z,78.44
2022-09-11T04:22:14.100Z,80.00
2022-09-11T04:24:41.725Z,81.91
2022-09-11T04:27:09.366Z,80.13
2022-09-11T04:29:36.909Z,77.19
2022-09-11T04:32:04.926Z,85.39
2022-09-11T04:34:35.795Z,77.54
2022-09-11T04:37:06.247Z,79.91
2022-09-11T04:39:35.879Z,79.14
2022-09-11T04:42:04.531Z,81.56
2022-09-11T04:44:33.251Z,79.30
2022-09-11T04:47:01.274Z,82.81
2022-09-11T04:49:28.980Z,80.76
2022-09-11T04:52:02.865Z,80.66
2022-09-11T04:54:30.793Z,86.15
2022-09-11T04:56:58.484Z,91.39
2022-09-11T04:59:26.274Z,89.67
2022-09-11T05:02:01.480Z,85.81
2022-09-11T05:04:29.925Z,82.63
2022-09-11T05:07:00.666Z,85.88
2022-09-11T05:09:28.315Z,89.49
2022-09-11T05:11:57.251Z,90.44
2022-09-11T05:14:28.957Z,89.88
2022-09-11T05:16:57.105Z,89.00
2022-09-11T05:19:26.436Z,85.79
2022-09-11T05:21:55.084Z,86.95
2022-09-11T05:24:23.928Z,86.53
2022-09-11T05:26:55.534Z,90.74
2022-09-11T05:29:33.743Z,90.27
2022-09-11T05:32:06.129Z,85.18
2022-09-11T05:34:35.812Z,86.70
2022-09-11T05:37:05.486Z,86.55
2022-09-11T05:39:38.777Z,86.35
2022-09-11T05:42:08.043Z,85.90
2022-09-11T05:44:39.230Z,84.13
2022-09-11T05:47:07.066Z,84.49
2022-09-11T05:49:34.762Z,80.92
2022-09-11T05:52:03.363Z,84.32
2022-09-11T05:54:32.693Z,83.33
2022-09-11T05:57:07.409Z,84.33
2022-09-11T05:59:37.426Z,86.14
2022-09-11T06:02:05.213Z,82.41
2022-09-11T06:04:41.323Z,79.51
2022-09-11T06:07:09.600Z,80.62
2022-09-11T06:09:39.029Z,79.85
2022-09-11T06:12:06.866Z,78.89
2022-09-11T06:14:35.843Z,77.53
2022-09-11T06:17:06.537Z,75.89
2022-09-11T06:19:34.484Z,74.79
2022-09-11T06:22:02.442Z,76.26
2022-09-11T06:24:36.796Z,75.46
2022-09-11T06:27:04.613Z,72.21
2022-09-11T06:29:34.783Z,70.18
2022-09-11T06:32:03.921Z,70.50
2022-09-11T06:34:33.253Z,70.76
2022-09-11T06:37:07.502Z,71.74
2022-09-11T06:39:37.285Z,75.26
2022-09-11T06:42:08.803Z,74.71
2022-09-11T06:44:37.796Z,76.29
2022-09-11T06:47:06.738Z,79.43
2022-09-11T06:49:36.367Z,78.14
2022-09-11T06:52:22.559Z,79.99
2022-09-11T06:55:03.364Z,78.31
2022-09-11T06:57:31.728Z,75.70
2022-09-11T06:59:59.317Z,66.78
2022-09-11T07:02:32.698Z,66.48
2022-09-11T07:05:01.289Z,61.05
2022-09-11T07:07:30.284Z,59.50
2022-09-11T07:10:01.210Z,54.03
2022-09-11T07:12:29.019Z,50.89
2022-09-11T07:14:58.160Z,50.41
2022-09-11T07:17:25.776Z,50.31
2022-09-11T07:19:59.138Z,50.39
2022-09-11T07:22:26.979Z,52.86
2022-09-11T07:24:57.341Z,46.84
2022-09-11T07:27:26.233Z,47.77
2022-09-11T07:29:53.893Z,47.69
2022-09-11T07:32:21.927Z,43.93
2022-09-11T07:34:50.460Z,46.92
2022-09-11T07:37:18.733Z,46.11
2022-09-11T07:55:50.566Z,43.23
2022-09-11T07:58:28.761Z,39.62
2022-09-11T08:01:03.712Z,36.93
2022-09-11T08:03:32.954Z,39.73
2022-09-11T08:06:06.712Z,39.24
2022-09-11T08:08:35.477Z,37.74
2022-09-11T08:11:06.936Z,35.23
2022-09-11T08:13:38.840Z,35.67
2022-09-11T08:16:12.690Z,38.84
2022-09-11T08:19:30.735Z,36.73
2022-09-11T08:22:02.157Z,36.36
2022-09-11T08:28:39.195Z,38.34
2022-09-11T08:31:13.010Z,37.22
2022-09-11T08:33:41.079Z,37.19
2022-09-11T08:36:11.766Z,34.12
2022-09-11T08:38:39.737Z,37.01
2022-09-11T08:41:36.141Z,36.15
2022-09-11T08:44:10.431Z,34.34
2022-09-11T08:46:48.458Z,33.71
2022-09-11T08:49:19.402Z,31.30
2022-09-11T08:51:50.054Z,36.96
2022-09-11T08:54:27.782Z,33.39
2022-09-11T08:57:37.822Z,35.72
2022-09-11T09:00:18.876Z,31.70
2022-09-11T09:03:18.563Z,34.44
2022-09-11T09:05:55.839Z,36.76
2022-09-11T09:08:41.393Z,37.35
2022-09-11T09:11:28.083Z,35.90
2022-09-11T09:13:56.848Z,36.79
2022-09-11T09:16:51.944Z,36.84
2022-09-11T09:19:34.581Z,36.17
2022-09-11T09:22:24.694Z,36.45
2022-09-11T09:25:01.303Z,39.38
2022-09-11T09:27:51.246Z,38.07
2022-09-11T09:30:23.702Z,37.33
2022-09-11T09:33:05.256Z,37.58
2022-09-11T09:35:40.549Z,37.73
2022-09-11T09:38:21.825Z,35.51
2022-09-11T09:41:03.782Z,38.47
2022-09-11T09:44:10.918Z,37.51
2022-09-11T09:46:42.595Z,36.96
2022-09-11T09:49:11.948Z,42.36
2022-09-11T09:51:41.904Z,39.52
2022-09-11T09:54:16.199Z,41.10
2022-09-11T09:56:49.426Z,38.67
2022-09-11T09:59:23.420Z,40.92
2022-09-11T10:01:52.287Z,40.00
2022-09-11T10:04:24.329Z,43.05
2022-09-11T10:06:55.351Z,44.62
2022-09-11T10:09:24.762Z,46.75
2022-09-11T10:12:08.147Z,47.82
2022-09-11T10:14:51.734Z,49.17
2022-09-11T10:17:31.277Z,49.75
2022-09-11T10:20:26.958Z,44.98
2022-09-11T10:22:58.908Z,43.41
2022-09-11T10:25:30.063Z,47.55
2022-09-11T10:28:06.162Z,50.14
2022-09-11T10:30:39.282Z,47.13
2022-09-11T10:33:21.267Z,45.14
2022-09-11T10:35:56.600Z,43.41
2022-09-11T10:38:46.664Z,43.48
2022-09-11T10:41:14.501Z,45.32
2022-09-11T10:44:07.875Z,44.21
2022-09-11T10:46:43.938Z,44.30
2022-09-11T10:49:20.444Z,46.72
2022-09-11T10:52:23.572Z,48.67
2022-09-11T10:55:15.893Z,45.58
2022-09-11T10:57:51.342Z,46.32
2022-09-11T11:00:29.150Z,46.19
2022-09-11T11:03:07.403Z,46.58
2022-09-11T11:05:53.566Z,47.62
2022-09-11T11:08:39.555Z,46.56
2022-09-11T11:11:25.485Z,42.71
2022-09-11T11:14:15.794Z,42.74
2022-09-11T11:17:14.991Z,42.57
2022-09-11T11:20:07.099Z,46.05
2022-09-11T11:23:14.465Z,45.23
2022-09-11T11:25:46.346Z,48.87
2022-09-11T11:28:41.529Z,47.19
2022-09-11T11:31:11.851Z,46.71
2022-09-11T11:34:06.571Z,44.81
2022-09-11T11:36:41.649Z,49.23
2022-09-11T11:39:50.397Z,52.01
2022-09-11T11:42:27.482Z,43.98
2022-09-11T11:45:04.104Z,43.02
2022-09-11T11:47:44.775Z,45.37
2022-09-11T11:50:16.102Z,48.64
2022-09-11T11:53:01.353Z,44.60
2022-09-11T11:55:39.237Z,44.71
2022-09-11T11:58:16.353Z,44.19
2022-09-11T12:00:57.298Z,45.35
2022-09-11T12:03:43.136Z,44.01
2022-09-11T12:06:11.733Z,43.79
2022-09-11T12:08:54.835Z,41.71
2022-09-11T12:11:30.962Z,40.88
2022-09-11T12:14:25.360Z,43.31
2022-09-11T12:18:25.212Z,41.34
2022-09-11T12:21:12.854Z,39.34
2022-09-11T12:23:47.339Z,42.37
2022-09-11T12:26:19.976Z,42.68
2022-09-11T12:29:10.214Z,41.31
2022-09-11T12:31:52.849Z,44.76
2022-09-11T13:24:30.025Z,41.88
2022-09-11T13:27:14.700Z,40.32
2022-09-11T13:29:43.648Z,41.47
2022-09-11T13:32:23.984Z,40.73
2022-09-11T13:35:32.263Z,41.59
2022-09-11T13:38:13.296Z,40.60
2022-09-11T13:40:47.670Z,42.64
2022-09-11T13:43:26.613Z,41.04
2022-09-11T13:46:32.592Z,41.28
2022-09-11T13:49:08.719Z,41.39
2022-09-11T13:51:47.664Z,45.74
2022-09-11T13:54:24.164Z,40.25
2022-09-11T13:56:54.685Z,41.40
2022-09-11T13:59:44.949Z,40.19
2022-09-11T14:02:44.285Z,40.67
2022-09-11T14:05:20.887Z,40.69
2022-09-11T14:08:24.656Z,38.49
2022-09-11T14:11:11.582Z,40.44
2022-09-11T14:13:59.118Z,39.29
2022-09-11T14:16:39.072Z,41.90
2022-09-11T14:19:11.541Z,40.00
2022-09-11T14:21:49.546Z,41.00
2022-09-11T14:24:33.275Z,40.03
2022-09-11T14:27:04.767Z,42.22
2022-09-11T14:29:35.558Z,40.66
2022-09-11T14:32:31.288Z,40.57
2022-09-11T14:35:01.481Z,41.56
2022-09-11T14:37:38.780Z,42.46
2022-09-11T14:40:17.234Z,41.51
2022-09-11T14:42:46.121Z,42.82
2022-09-11T14:45:25.963Z,42.12
2022-09-11T14:48:00.168Z,43.36
2022-09-11T14:50:27.878Z,42.23
2022-09-11T14:52:55.508Z,42.09
2022-09-11T14:55:23.183Z,43.18
2022-09-11T14:57:50.861Z,42.97
2022-09-11T15:00:19.281Z,44.11
2022-09-11T15:02:47.835Z,43.54
2022-09-11T15:05:21.821Z,43.01
2022-09-11T15:07:53.210Z,45.62
2022-09-11T15:10:20.888Z,42.32
2022-09-11T15:12:49.164Z,41.51
2022-09-11T15:15:21.419Z,40.30
2022-09-11T15:17:51.755Z,40.37
2022-09-11T15:20:23.812Z,41.70
2022-09-11T15:22:54.450Z,41.57
2022-09-11T15:25:22.443Z,41.00
2022-09-11T15:27:53.298Z,40.68
2022-09-11T15:30:21.741Z,40.57
2022-09-11T15:32:49.268Z,41.41
2022-09-11T15:35:18.327Z,43.04
2022-09-11T15:37:49.563Z,41.85
2022-09-11T15:40:19.317Z,43.15
2022-09-11T15:42:49.802Z,42.63
2022-09-11T15:45:17.625Z,42.95
2022-09-11T15:47:45.313Z,43.07
2022-09-11T15:50:12.849Z,44.42
2022-09-11T15:52:41.166Z,45.71
2022-09-11T15:55:10.075Z,45.22
2022-09-11T15:57:39.354Z,44.45
2022-09-11T16:00:07.633Z,45.01
2022-09-11T16:02:39.474Z,44.59
2022-09-11T16:05:07.332Z,44.98
2022-09-11T16:07:34.959Z,45.25
2022-09-11T16:10:05.551Z,45.23
2022-09-11T16:12:34.801Z,44.85
2022-09-11T16:15:02.398Z,44.43
2022-09-11T16:17:32.392Z,44.88
2022-09-11T16:20:00.118Z,44.70
2022-09-11T16:22:31.398Z,44.20
2022-09-11T16:25:02.862Z,45.24
2022-09-11T16:27:30.784Z,48.14
2022-09-11T16:30:26.293Z,46.45
2022-09-11T16:32:49.127Z,47.94
2022-09-11T16:35:19.105Z,47.40
2022-09-11T16:37:47.238Z,47.71
2022-09-11T16:40:18.083Z,46.79
2022-09-11T16:42:45.945Z,47.61
2022-09-11T16:45:13.624Z,49.19
2022-09-11T16:47:41.375Z,50.02
2022-09-11T16:50:09.515Z,49.91
2022-09-11T16:52:40.369Z,49.41
2022-09-11T16:55:09.781Z,50.66
2022-09-11T16:57:39.571Z,51.49
2022-09-11T17:00:11.061Z,49.84
2022-09-11T17:02:41.578Z,53.70
2022-09-11T17:05:12.283Z,52.57
2022-09-11T17:07:42.942Z,53.02
2022-09-11T17:10:11.786Z,55.35
2022-09-11T17:12:39.391Z,55.48
2022-09-11T17:15:12.994Z,57.50
2022-09-11T17:17:43.538Z,54.17
2022-09-11T17:20:12.513Z,59.91
2022-09-11T17:22:40.581Z,57.45
2022-09-11T17:25:08.602Z,58.91
2022-09-11T17:27:38.698Z,63.20
2022-09-11T17:30:06.758Z,63.13
2022-09-11T17:32:34.270Z,63.08
2022-09-11T17:35:03.989Z,64.02
2022-09-11T17:37:31.674Z,64.59
2022-09-11T17:39:59.481Z,63.70
2022-09-11T17:42:27.390Z,62.85
2022-09-11T17:44:55.086Z,62.39
2022-09-11T17:47:24.367Z,62.47
2022-09-11T17:49:54.783Z,61.61
2022-09-11T17:52:22.433Z,62.24
2022-09-11T17:54:50.169Z,63.14
2022-09-11T17:57:17.768Z,62.82
2022-09-11T17:59:47.018Z,61.44
2022-09-11T18:02:34.616Z,62.10
2022-09-11T18:05:02.246Z,61.69
2022-09-11T18:07:30.397Z,63.69
2022-09-11T18:10:03.262Z,66.22
2022-09-11T18:12:45.284Z,63.97
2022-09-11T18:15:13.894Z,67.20
2022-09-11T18:18:04.746Z,67.26
2022-09-11T18:20:37.409Z,67.30
2022-09-11T18:23:25.427Z,67.05
2022-09-11T18:26:07.456Z,66.41
2022-09-11T18:29:25.808Z,67.94
2022-09-11T18:37:02.890Z,68.12
2022-09-11T18:39:19.115Z,68.07
2022-09-11T18:41:47.903Z,69.13
2022-09-11T18:44:19.850Z,67.02
2022-09-11T18:46:48.511Z,64.86
2022-09-11T18:49:16.484Z,63.29
2022-09-11T18:51:44.112Z,65.69
2022-09-11T18:54:14.920Z,63.46
2022-09-11T18:56:43.584Z,62.29
2022-09-11T18:59:12.783Z,62.60
2022-09-11T19:01:41.337Z,63.22
2022-09-11T19:04:10.808Z,63.92
2022-09-11T19:06:40.728Z,65.21
2022-09-11T19:09:10.580Z,63.97
2022-09-11T19:11:43.115Z,63.72
2022-09-11T19:14:35.981Z,63.45
2022-09-11T19:17:04.455Z,62.93
2022-09-11T19:19:47.878Z,63.51
2022-09-11T19:22:15.627Z,61.87
2022-09-11T19:24:43.360Z,62.49
2022-09-11T19:27:12.095Z,61.51
2022-09-11T19:29:40.082Z,61.76
2022-09-11T19:32:08.484Z,62.45
2022-09-11T19:34:46.448Z,64.52
2022-09-11T19:37:16.539Z,62.85
2022-09-11T19:39:45.557Z,64.30
2022-09-11T19:42:18.519Z,63.56
2022-09-11T19:44:52.064Z,63.23
2022-09-11T19:47:27.401Z,62.10
2022-09-11T19:49:55.471Z,62.43
2022-09-11T19:52:23.548Z,62.19
2022-09-11T19:54:56.353Z,62.78
2022-09-11T19:57:37.045Z,62.09
2022-09-11T20:00:31.343Z,61.67
2022-09-11T20:03:01.472Z,61.81
2022-09-11T20:05:56.645Z,61.85
2022-09-11T20:08:42.305Z,61.42
2022-09-11T20:11:21.314Z,64.47
2022-09-11T20:14:00.310Z,62.15
2022-09-11T20:16:28.471Z,62.62
2022-09-11T20:19:00.402Z,59.93
2022-09-11T20:21:28.304Z,61.17
2022-09-11T20:24:00.621Z,58.81
2022-09-11T20:26:37.136Z,59.82
2022-09-11T20:29:16.067Z,57.90
2022-09-11T20:31:48.911Z,59.24
2022-09-11T20:34:19.738Z,59.96
2022-09-11T20:36:47.614Z,59.58
2022-09-11T20:39:16.406Z,59.00
2022-09-11T20:41:45.249Z,56.21
2022-09-11T20:44:13.001Z,55.60
2022-09-11T20:46:40.915Z,55.41
2022-09-11T20:49:12.118Z,55.02
2022-09-11T20:51:44.711Z,55.15
2022-09-11T20:54:12.507Z,56.05
2022-09-11T20:56:42.916Z,56.51
2022-09-11T20:59:19.838Z,54.69
2022-09-11T21:01:49.315Z,54.55
2022-09-11T21:04:17.028Z,55.32
2022-09-11T21:06:45.400Z,53.98
2022-09-11T21:09:21.274Z,54.82
2022-09-11T21:11:48.906Z,51.55
2022-09-11T21:14:17.328Z,53.10
2022-09-11T21:16:47.163Z,51.28
2022-09-11T21:19:15.130Z,54.40
2022-09-11T21:21:42.821Z,52.24
2022-09-11T21:24:13.997Z,52.52
2022-09-11T21:26:45.102Z,50.12
2022-09-11T21:29:22.251Z,49.31
2022-09-11T21:31:53.113Z,48.93
2022-09-11T21:34:20.779Z,51.45
2022-09-11T21:36:48.360Z,50.13
2022-09-11T21:39:16.019Z,49.54
2022-09-11T21:41:43.718Z,50.89
2022-09-11T21:44:11.576Z,49.40
2022-09-11T21:46:39.271Z,48.48
2022-09-11T21:53:02.883Z,53.36
2022-09-11T21:55:50.324Z,49.56
2022-09-11T21:58:24.359Z,49.05
2022-09-11T22:03:48.279Z,47.93
2022-09-11T22:06:20.536Z,47.24
2022-09-11T22:08:48.181Z,47.54
2022-09-11T22:11:18.442Z,47.67
2022-09-11T22:13:47.828Z,47.84
2022-09-11T22:16:19.382Z,51.66
2022-09-11T22:18:49.864Z,48.51
2022-09-11T22:21:22.456Z,48.07
2022-09-11T22:23:50.310Z,48.69
2022-09-11T22:26:23.691Z,49.39
2022-09-11T22:28:53.555Z,49.47
2022-09-11T22:31:32.522Z,49.26
2022-09-11T22:34:49.209Z,49.21
2022-09-11T22:38:17.700Z,49.58
2022-09-11T22:50:40.127Z,49.70
2022-09-11T22:54:13.466Z,51.61
2022-09-11T22:56:41.267Z,52.41
2022-09-11T22:59:09.157Z,50.53
2022-09-11T23:01:37.351Z,51.75
2022-09-11T23:04:07.262Z,51.02
2022-09-11T23:06:53.511Z,53.45
2022-09-11T23:09:21.106Z,51.29
2022-09-11T23:11:51.195Z,51.88
2022-09-11T23:14:18.858Z,50.78
2022-09-11T23:16:46.475Z,50.96
2022-09-11T23:19:14.948Z,51.72
2022-09-11T23:21:43.063Z,50.26
2022-09-11T23:24:14.726Z,55.06
2022-09-11T23:26:45.285Z,51.25
2022-09-11T23:29:12.876Z,52.58
2022-09-11T23:31:42.068Z,53.55
2022-09-11T23:34:13.855Z,54.42
2022-09-11T23:36:45.561Z,56.58
2022-09-11T23:39:13.691Z,53.81
2022-09-11T23:41:43.293Z,54.70
2022-09-11T23:44:13.755Z,56.92
2022-09-11T23:46:41.365Z,57.16
2022-09-11T23:49:11.560Z,55.21
2022-09-11T23:51:39.440Z,55.34
2022-09-11T23:54:14.509Z,55.41
2022-09-11T23:56:42.860Z,55.18
2022-09-11T23:59:10.525Z,56.08
